sensor_id;sensor_type;location;lat;lon;timestamp;P1;durP1;ratioP1;P2;durP2;ratioP2
64938;SDS011;51453;47.738;7.420;2022-12-18T00:01:05;143.40;;;29.25;;
64938;SDS011;51453;47.738;7.420;2022-12-18T00:03:39;126.22;;;29.02;;
64938;SDS011;51453;47.738;7.420;2022-12-18T00:06:04;131.35;;;29.98;;
64938;SDS011;51453;47.738;7.420;2022-12-18T00:08:30;149.30;;;29.05;;
64938;SDS011;51453;47.738;7.420;2022-12-18T00:11:02;144.05;;;28.33;;
64938;SDS011;51453;47.738;7.420;2022-12-18T00:13:33;150.02;;;29.23;;
64938;SDS011;51453;47.738;7.420;2022-12-18T00:16:02;150.30;;;30.50;;
64938;SDS011;51453;47.738;7.420;2022-12-18T00:20:57;116.45;;;25.70;;
64938;SDS011;51453;47.738;7.420;2022-12-18T00:23:28;119.93;;;25.85;;
64938;SDS011;51453;47.738;7.420;2022-12-18T00:25:54;101.40;;;26.65;;
64938;SDS011;51453;47.738;7.420;2022-12-18T00:28:19;107.65;;;27.10;;
64938;SDS011;51453;47.738;7.420;2022-12-18T00:30:45;98.30;;;27.30;;
64938;SDS011;51453;47.738;7.420;2022-12-18T00:33:11;97.03;;;25.88;;
64938;SDS011;51453;47.738;7.420;2022-12-18T00:35:37;125.43;;;27.13;;
64938;SDS011;51453;47.738;7.420;2022-12-18T00:38:02;118.30;;;27.48;;
64938;SDS011;51453;47.738;7.420;2022-12-18T00:40:28;136.20;;;26.55;;
64938;SDS011;51453;47.738;7.420;2022-12-18T00:42:53;124.20;;;27.40;;
64938;SDS011;51453;47.738;7.420;2022-12-18T00:45:26;93.65;;;25.58;;
64938;SDS011;51453;47.738;7.420;2022-12-18T00:47:56;100.75;;;28.25;;
64938;SDS011;51453;47.738;7.420;2022-12-18T00:50:23;113.35;;;25.38;;
64938;SDS011;51453;47.738;7.420;2022-12-18T00:52:50;121.65;;;24.08;;
64938;SDS011;51453;47.738;7.420;2022-12-18T00:55:16;84.13;;;25.17;;
64938;SDS011;51453;47.738;7.420;2022-12-18T00:57:42;118.07;;;26.30;;
64938;SDS011;51453;47.738;7.420;2022-12-18T01:00:09;117.45;;;25.65;;
64938;SDS011;51453;47.738;7.420;2022-12-18T01:02:36;126.97;;;25.73;;
64938;SDS011;51453;47.738;7.420;2022-12-18T01:05:02;90.82;;;24.42;;
64938;SDS011;51453;47.738;7.420;2022-12-18T01:07:29;160.48;;;28.38;;
64938;SDS011;51453;47.738;7.420;2022-12-18T01:09:55;152.57;;;26.85;;
64938;SDS011;51453;47.738;7.420;2022-12-18T01:12:21;106.68;;;25.98;;
64938;SDS011;51453;47.738;7.420;2022-12-18T01:14:46;87.30;;;25.63;;
64938;SDS011;51453;47.738;7.420;2022-12-18T01:17:12;110.45;;;25.80;;
64938;SDS011;51453;47.738;7.420;2022-12-18T01:19:38;145.63;;;27.52;;
64938;SDS011;51453;47.738;7.420;2022-12-18T01:22:03;97.07;;;26.27;;
64938;SDS011;51453;47.738;7.420;2022-12-18T01:24:29;136.90;;;26.48;;
64938;SDS011;51453;47.738;7.420;2022-12-18T01:26:55;137.93;;;27.20;;
64938;SDS011;51453;47.738;7.420;2022-12-18T01:29:22;103.60;;;25.92;;
64938;SDS011;51453;47.738;7.420;2022-12-18T01:31:48;109.68;;;26.50;;
64938;SDS011;51453;47.738;7.420;2022-12-18T01:34:14;105.03;;;25.85;;
64938;SDS011;51453;47.738;7.420;2022-12-18T01:36:39;103.65;;;26.83;;
64938;SDS011;51453;47.738;7.420;2022-12-18T01:39:12;86.35;;;25.83;;
64938;SDS011;51453;47.738;7.420;2022-12-18T01:41:39;128.15;;;27.27;;
64938;SDS011;51453;47.738;7.420;2022-12-18T01:47:38;118.00;;;25.33;;
64938;SDS011;51453;47.738;7.420;2022-12-18T01:50:12;136.55;;;27.20;;
64938;SDS011;51453;47.738;7.420;2022-12-18T01:52:47;138.68;;;25.58;;
64938;SDS011;51453;47.738;7.420;2022-12-18T01:55:15;88.53;;;24.60;;
64938;SDS011;51453;47.738;7.420;2022-12-18T01:57:43;147.50;;;26.33;;
64938;SDS011;51453;47.738;7.420;2022-12-18T02:00:16;132.85;;;27.08;;
64938;SDS011;51453;47.738;7.420;2022-12-18T02:02:44;117.22;;;26.33;;
64938;SDS011;51453;47.738;7.420;2022-12-18T02:05:11;128.63;;;27.55;;
64938;SDS011;51453;47.738;7.420;2022-12-18T02:08:25;100.85;;;26.17;;
64938;SDS011;51453;47.738;7.420;2022-12-18T02:14:00;116.78;;;26.00;;
64938;SDS011;51453;47.738;7.420;2022-12-18T02:19:34;132.15;;;26.33;;
64938;SDS011;51453;47.738;7.420;2022-12-18T02:27:49;157.20;;;27.98;;
64938;SDS011;51453;47.738;7.420;2022-12-18T02:30:17;151.25;;;29.38;;
64938;SDS011;51453;47.738;7.420;2022-12-18T02:32:45;123.13;;;27.13;;
64938;SDS011;51453;47.738;7.420;2022-12-18T02:35:16;147.48;;;27.90;;
64938;SDS011;51453;47.738;7.420;2022-12-18T02:37:48;116.05;;;28.00;;
64938;SDS011;51453;47.738;7.420;2022-12-18T02:40:15;119.35;;;26.80;;
64938;SDS011;51453;47.738;7.420;2022-12-18T02:42:44;167.25;;;27.92;;
64938;SDS011;51453;47.738;7.420;2022-12-18T02:45:09;114.68;;;27.70;;
64938;SDS011;51453;47.738;7.420;2022-12-18T02:47:39;142.25;;;28.27;;
64938;SDS011;51453;47.738;7.420;2022-12-18T02:53:07;123.20;;;31.35;;
64938;SDS011;51453;47.738;7.420;2022-12-18T03:03:43;119.72;;;29.48;;
64938;SDS011;51453;47.738;7.420;2022-12-18T03:06:20;121.72;;;30.98;;
64938;SDS011;51453;47.738;7.420;2022-12-18T03:08:54;165.32;;;29.95;;
64938;SDS011;51453;47.738;7.420;2022-12-18T03:11:24;126.30;;;29.77;;
64938;SDS011;51453;47.738;7.420;2022-12-18T03:14:32;124.07;;;29.88;;
64938;SDS011;51453;47.738;7.420;2022-12-18T03:17:03;130.15;;;30.05;;
64938;SDS011;51453;47.738;7.420;2022-12-18T03:19:34;111.38;;;28.85;;
64938;SDS011;51453;47.738;7.420;2022-12-18T03:22:01;118.60;;;29.52;;
64938;SDS011;51453;47.738;7.420;2022-12-18T03:24:29;126.63;;;30.58;;
64938;SDS011;51453;47.738;7.420;2022-12-18T03:27:00;120.07;;;28.70;;
64938;SDS011;51453;47.738;7.420;2022-12-18T03:29:31;114.03;;;29.25;;
64938;SDS011;51453;47.738;7.420;2022-12-18T03:32:08;113.63;;;30.40;;
64938;SDS011;51453;47.738;7.420;2022-12-18T03:34:41;113.47;;;28.60;;
64938;SDS011;51453;47.738;7.420;2022-12-18T03:37:09;114.05;;;27.88;;
64938;SDS011;51453;47.738;7.420;2022-12-18T03:39:35;113.82;;;29.20;;
64938;SDS011;51453;47.738;7.420;2022-12-18T03:42:03;114.95;;;29.88;;
64938;SDS011;51453;47.738;7.420;2022-12-18T03:47:14;112.82;;;28.92;;
64938;SDS011;51453;47.738;7.420;2022-12-18T03:49:56;103.50;;;28.05;;
64938;SDS011;51453;47.738;7.420;2022-12-18T03:52:29;99.95;;;28.17;;
64938;SDS011;51453;47.738;7.420;2022-12-18T03:54:58;102.40;;;28.52;;
64938;SDS011;51453;47.738;7.420;2022-12-18T03:57:28;143.02;;;29.08;;
64938;SDS011;51453;47.738;7.420;2022-12-18T04:02:55;105.32;;;27.17;;
64938;SDS011;51453;47.738;7.420;2022-12-18T04:05:24;104.85;;;29.30;;
64938;SDS011;51453;47.738;7.420;2022-12-18T04:07:53;129.27;;;29.50;;
64938;SDS011;51453;47.738;7.420;2022-12-18T04:10:21;104.50;;;27.48;;
64938;SDS011;51453;47.738;7.420;2022-12-18T04:12:47;133.82;;;29.80;;
64938;SDS011;51453;47.738;7.420;2022-12-18T04:15:13;143.68;;;29.48;;
64938;SDS011;51453;47.738;7.420;2022-12-18T04:17:39;146.52;;;29.17;;
64938;SDS011;51453;47.738;7.420;2022-12-18T04:20:12;108.88;;;27.63;;
64938;SDS011;51453;47.738;7.420;2022-12-18T04:22:38;120.72;;;26.83;;
64938;SDS011;51453;47.738;7.420;2022-12-18T04:25:04;111.88;;;25.88;;
64938;SDS011;51453;47.738;7.420;2022-12-18T04:27:29;110.35;;;27.48;;
64938;SDS011;51453;47.738;7.420;2022-12-18T04:29:55;125.90;;;27.85;;
64938;SDS011;51453;47.738;7.420;2022-12-18T04:32:21;91.60;;;26.92;;
64938;SDS011;51453;47.738;7.420;2022-12-18T04:34:46;143.00;;;27.00;;
64938;SDS011;51453;47.738;7.420;2022-12-18T04:37:12;95.70;;;26.45;;
64938;SDS011;51453;47.738;7.420;2022-12-18T04:39:38;103.30;;;27.05;;
64938;SDS011;51453;47.738;7.420;2022-12-18T04:42:04;128.88;;;29.83;;
64938;SDS011;51453;47.738;7.420;2022-12-18T04:44:29;117.90;;;28.17;;
64938;SDS011;51453;47.738;7.420;2022-12-18T04:46:55;98.75;;;26.63;;
64938;SDS011;51453;47.738;7.420;2022-12-18T04:49:21;114.00;;;29.30;;
64938;SDS011;51453;47.738;7.420;2022-12-18T04:51:47;116.95;;;29.38;;
64938;SDS011;51453;47.738;7.420;2022-12-18T04:54:12;117.38;;;27.75;;
64938;SDS011;51453;47.738;7.420;2022-12-18T04:56:38;100.93;;;27.25;;
64938;SDS011;51453;47.738;7.420;2022-12-18T04:59:04;108.63;;;28.73;;
64938;SDS011;51453;47.738;7.420;2022-12-18T05:01:30;109.80;;;28.00;;
64938;SDS011;51453;47.738;7.420;2022-12-18T05:03:56;118.05;;;27.05;;
64938;SDS011;51453;47.738;7.420;2022-12-18T05:06:21;100.78;;;28.77;;
64938;SDS011;51453;47.738;7.420;2022-12-18T05:08:47;108.70;;;28.33;;
64938;SDS011;51453;47.738;7.420;2022-12-18T05:11:13;109.07;;;29.38;;
64938;SDS011;51453;47.738;7.420;2022-12-18T05:13:43;117.78;;;27.27;;
64938;SDS011;51453;47.738;7.420;2022-12-18T05:16:10;95.82;;;28.27;;
64938;SDS011;51453;47.738;7.420;2022-12-18T05:18:35;119.40;;;27.58;;
64938;SDS011;51453;47.738;7.420;2022-12-18T05:21:01;104.03;;;28.58;;
64938;SDS011;51453;47.738;7.420;2022-12-18T05:23:27;108.80;;;28.83;;
64938;SDS011;51453;47.738;7.420;2022-12-18T05:25:57;99.80;;;28.98;;
64938;SDS011;51453;47.738;7.420;2022-12-18T05:28:25;103.15;;;27.90;;
64938;SDS011;51453;47.738;7.420;2022-12-18T05:30:53;116.72;;;29.00;;
64938;SDS011;51453;47.738;7.420;2022-12-18T05:33:21;123.32;;;30.15;;
64938;SDS011;51453;47.738;7.420;2022-12-18T05:35:51;100.40;;;27.08;;
64938;SDS011;51453;47.738;7.420;2022-12-18T05:38:24;99.28;;;27.45;;
64938;SDS011;51453;47.738;7.420;2022-12-18T05:40:51;111.65;;;28.95;;
64938;SDS011;51453;47.738;7.420;2022-12-18T05:43:18;107.28;;;26.67;;
64938;SDS011;51453;47.738;7.420;2022-12-18T05:45:45;108.18;;;28.70;;
64938;SDS011;51453;47.738;7.420;2022-12-18T05:48:11;112.80;;;27.23;;
64938;SDS011;51453;47.738;7.420;2022-12-18T05:50:37;94.88;;;27.45;;
64938;SDS011;51453;47.738;7.420;2022-12-18T05:53:04;113.97;;;28.17;;
64938;SDS011;51453;47.738;7.420;2022-12-18T05:55:34;115.00;;;29.50;;
64938;SDS011;51453;47.738;7.420;2022-12-18T05:58:01;104.53;;;29.40;;
64938;SDS011;51453;47.738;7.420;2022-12-18T06:00:28;120.25;;;29.50;;
64938;SDS011;51453;47.738;7.420;2022-12-18T06:02:53;106.85;;;28.92;;
64938;SDS011;51453;47.738;7.420;2022-12-18T06:05:19;111.53;;;29.65;;
64938;SDS011;51453;47.738;7.420;2022-12-18T06:07:45;150.68;;;34.95;;
64938;SDS011;51453;47.738;7.420;2022-12-18T06:10:10;105.55;;;28.80;;
64938;SDS011;51453;47.738;7.420;2022-12-18T06:12:36;101.43;;;29.42;;
64938;SDS011;51453;47.738;7.420;2022-12-18T06:15:02;104.25;;;28.80;;
64938;SDS011;51453;47.738;7.420;2022-12-18T06:17:32;126.80;;;30.25;;
64938;SDS011;51453;47.738;7.420;2022-12-18T06:19:58;96.03;;;28.38;;
64938;SDS011;51453;47.738;7.420;2022-12-18T06:22:24;101.10;;;27.90;;
64938;SDS011;51453;47.738;7.420;2022-12-18T06:24:50;113.20;;;29.70;;
64938;SDS011;51453;47.738;7.420;2022-12-18T06:27:15;102.85;;;28.25;;
64938;SDS011;51453;47.738;7.420;2022-12-18T06:29:41;98.65;;;29.02;;
64938;SDS011;51453;47.738;7.420;2022-12-18T06:32:07;107.68;;;26.70;;
64938;SDS011;51453;47.738;7.420;2022-12-18T06:34:33;110.22;;;29.08;;
64938;SDS011;51453;47.738;7.420;2022-12-18T06:37:00;100.18;;;27.77;;
64938;SDS011;51453;47.738;7.420;2022-12-18T06:39:29;104.45;;;29.70;;
64938;SDS011;51453;47.738;7.420;2022-12-18T06:41:54;106.22;;;27.77;;
64938;SDS011;51453;47.738;7.420;2022-12-18T06:44:20;104.65;;;28.45;;
64938;SDS011;51453;47.738;7.420;2022-12-18T06:46:46;132.43;;;28.35;;
64938;SDS011;51453;47.738;7.420;2022-12-18T06:49:12;94.32;;;27.67;;
64938;SDS011;51453;47.738;7.420;2022-12-18T06:51:37;107.57;;;27.95;;
64938;SDS011;51453;47.738;7.420;2022-12-18T06:54:03;94.85;;;26.33;;
64938;SDS011;51453;47.738;7.420;2022-12-18T06:56:29;100.68;;;28.67;;
64938;SDS011;51453;47.738;7.420;2022-12-18T06:58:55;111.90;;;28.65;;
64938;SDS011;51453;47.738;7.420;2022-12-18T07:01:21;108.07;;;28.65;;
64938;SDS011;51453;47.738;7.420;2022-12-18T07:03:47;110.63;;;27.65;;
64938;SDS011;51453;47.738;7.420;2022-12-18T07:06:19;102.50;;;27.05;;
64938;SDS011;51453;47.738;7.420;2022-12-18T07:08:46;121.15;;;31.15;;
64938;SDS011;51453;47.738;7.420;2022-12-18T07:11:12;106.40;;;28.23;;
64938;SDS011;51453;47.738;7.420;2022-12-18T07:13:38;100.43;;;28.25;;
64938;SDS011;51453;47.738;7.420;2022-12-18T07:16:08;125.35;;;30.58;;
64938;SDS011;51453;47.738;7.420;2022-12-18T07:18:35;113.53;;;30.33;;
64938;SDS011;51453;47.738;7.420;2022-12-18T07:21:05;113.15;;;30.50;;
64938;SDS011;51453;47.738;7.420;2022-12-18T07:26:00;100.82;;;26.58;;
64938;SDS011;51453;47.738;7.420;2022-12-18T07:28:30;118.70;;;32.70;;
64938;SDS011;51453;47.738;7.420;2022-12-18T07:30:56;121.20;;;31.70;;
64938;SDS011;51453;47.738;7.420;2022-12-18T07:33:22;101.28;;;29.60;;
64938;SDS011;51453;47.738;7.420;2022-12-18T07:35:47;108.20;;;29.13;;
64938;SDS011;51453;47.738;7.420;2022-12-18T07:38:13;121.55;;;32.50;;
64938;SDS011;51453;47.738;7.420;2022-12-18T07:40:38;112.63;;;30.60;;
64938;SDS011;51453;47.738;7.420;2022-12-18T07:43:04;117.50;;;33.25;;
64938;SDS011;51453;47.738;7.420;2022-12-18T07:45:30;116.60;;;33.58;;
64938;SDS011;51453;47.738;7.420;2022-12-18T07:47:55;108.75;;;31.15;;
64938;SDS011;51453;47.738;7.420;2022-12-18T07:50:21;93.95;;;28.73;;
64938;SDS011;51453;47.738;7.420;2022-12-18T07:52:47;102.63;;;30.45;;
64938;SDS011;51453;47.738;7.420;2022-12-18T07:55:13;108.85;;;29.52;;
64938;SDS011;51453;47.738;7.420;2022-12-18T07:57:38;104.50;;;30.67;;
64938;SDS011;51453;47.738;7.420;2022-12-18T08:00:04;109.95;;;30.42;;
64938;SDS011;51453;47.738;7.420;2022-12-18T08:02:31;106.05;;;30.02;;
64938;SDS011;51453;47.738;7.420;2022-12-18T08:04:56;121.80;;;31.55;;
64938;SDS011;51453;47.738;7.420;2022-12-18T08:07:23;113.72;;;30.15;;
64938;SDS011;51453;47.738;7.420;2022-12-18T08:09:49;117.82;;;31.48;;
64938;SDS011;51453;47.738;7.420;2022-12-18T08:12:14;109.40;;;30.77;;
64938;SDS011;51453;47.738;7.420;2022-12-18T08:14:40;108.47;;;30.13;;
64938;SDS011;51453;47.738;7.420;2022-12-18T08:17:06;111.10;;;30.75;;
64938;SDS011;51453;47.738;7.420;2022-12-18T08:19:31;103.55;;;30.35;;
64938;SDS011;51453;47.738;7.420;2022-12-18T08:21:57;99.30;;;29.10;;
64938;SDS011;51453;47.738;7.420;2022-12-18T08:24:23;102.32;;;28.98;;
64938;SDS011;51453;47.738;7.420;2022-12-18T08:26:48;97.80;;;28.98;;
64938;SDS011;51453;47.738;7.420;2022-12-18T08:29:14;104.72;;;31.05;;
64938;SDS011;51453;47.738;7.420;2022-12-18T08:31:40;93.78;;;29.73;;
64938;SDS011;51453;47.738;7.420;2022-12-18T08:34:07;88.20;;;28.60;;
64938;SDS011;51453;47.738;7.420;2022-12-18T08:36:33;95.60;;;28.95;;
64938;SDS011;51453;47.738;7.420;2022-12-18T08:38:59;88.43;;;27.92;;
64938;SDS011;51453;47.738;7.420;2022-12-18T08:41:24;84.82;;;26.20;;
64938;SDS011;51453;47.738;7.420;2022-12-18T08:43:50;84.15;;;25.98;;
64938;SDS011;51453;47.738;7.420;2022-12-18T08:46:43;87.18;;;26.65;;
64938;SDS011;51453;47.738;7.420;2022-12-18T08:49:09;81.40;;;25.90;;
64938;SDS011;51453;47.738;7.420;2022-12-18T08:51:36;84.15;;;26.55;;
64938;SDS011;51453;47.738;7.420;2022-12-18T08:54:02;85.63;;;27.02;;
64938;SDS011;51453;47.738;7.420;2022-12-18T08:56:29;80.10;;;25.95;;
64938;SDS011;51453;47.738;7.420;2022-12-18T08:58:55;96.97;;;29.98;;
64938;SDS011;51453;47.738;7.420;2022-12-18T09:01:21;85.47;;;27.13;;
64938;SDS011;51453;47.738;7.420;2022-12-18T09:03:48;101.50;;;31.33;;
64938;SDS011;51453;47.738;7.420;2022-12-18T09:06:18;101.95;;;32.95;;
64938;SDS011;51453;47.738;7.420;2022-12-18T09:08:44;101.07;;;32.85;;
64938;SDS011;51453;47.738;7.420;2022-12-18T09:11:15;107.18;;;33.88;;
64938;SDS011;51453;47.738;7.420;2022-12-18T09:13:48;101.68;;;34.47;;
64938;SDS011;51453;47.738;7.420;2022-12-18T09:16:14;97.95;;;32.00;;
64938;SDS011;51453;47.738;7.420;2022-12-18T09:18:40;88.15;;;30.95;;
64938;SDS011;51453;47.738;7.420;2022-12-18T09:21:09;93.63;;;32.05;;
64938;SDS011;51453;47.738;7.420;2022-12-18T09:23:51;95.65;;;31.02;;
64938;SDS011;51453;47.738;7.420;2022-12-18T09:26:19;98.43;;;31.00;;
64938;SDS011;51453;47.738;7.420;2022-12-18T09:28:45;87.05;;;30.75;;
64938;SDS011;51453;47.738;7.420;2022-12-18T09:31:12;84.93;;;29.52;;
64938;SDS011;51453;47.738;7.420;2022-12-18T09:33:38;94.97;;;32.17;;
64938;SDS011;51453;47.738;7.420;2022-12-18T09:36:04;101.63;;;32.95;;
64938;SDS011;51453;47.738;7.420;2022-12-18T09:38:32;91.60;;;32.55;;
64938;SDS011;51453;47.738;7.420;2022-12-18T09:41:05;96.43;;;31.10;;
64938;SDS011;51453;47.738;7.420;2022-12-18T09:46:11;94.22;;;33.20;;
64938;SDS011;51453;47.738;7.420;2022-12-18T09:48:42;106.88;;;35.38;;
64938;SDS011;51453;47.738;7.420;2022-12-18T09:51:16;86.95;;;31.52;;
64938;SDS011;51453;47.738;7.420;2022-12-18T09:53:47;81.97;;;30.90;;
64938;SDS011;51453;47.738;7.420;2022-12-18T09:56:18;87.25;;;31.08;;
64938;SDS011;51453;47.738;7.420;2022-12-18T10:01:22;88.85;;;32.85;;
64938;SDS011;51453;47.738;7.420;2022-12-18T10:03:48;86.15;;;33.05;;
64938;SDS011;51453;47.738;7.420;2022-12-18T10:08:55;84.85;;;31.67;;
64938;SDS011;51453;47.738;7.420;2022-12-18T10:25:02;78.07;;;30.98;;
64938;SDS011;51453;47.738;7.420;2022-12-18T10:27:35;73.10;;;28.73;;
64938;SDS011;51453;47.738;7.420;2022-12-18T10:30:01;71.45;;;28.40;;
64938;SDS011;51453;47.738;7.420;2022-12-18T10:32:50;73.22;;;28.48;;
64938;SDS011;51453;47.738;7.420;2022-12-18T10:35:20;79.80;;;30.25;;
64938;SDS011;51453;47.738;7.420;2022-12-18T10:38:05;80.95;;;29.67;;
64938;SDS011;51453;47.738;7.420;2022-12-18T10:40:31;79.35;;;29.77;;
64938;SDS011;51453;47.738;7.420;2022-12-18T10:43:10;76.97;;;28.23;;
64938;SDS011;51453;47.738;7.420;2022-12-18T10:45:38;74.88;;;27.42;;
64938;SDS011;51453;47.738;7.420;2022-12-18T10:48:04;79.43;;;29.80;;
64938;SDS011;51453;47.738;7.420;2022-12-18T10:50:42;82.60;;;31.10;;
64938;SDS011;51453;47.738;7.420;2022-12-18T10:53:13;82.20;;;30.40;;
64938;SDS011;51453;47.738;7.420;2022-12-18T10:55:46;87.68;;;31.42;;
64938;SDS011;51453;47.738;7.420;2022-12-18T10:58:16;78.30;;;28.35;;
64938;SDS011;51453;47.738;7.420;2022-12-18T11:01:01;84.78;;;29.83;;
64938;SDS011;51453;47.738;7.420;2022-12-18T11:03:42;88.18;;;31.02;;
64938;SDS011;51453;47.738;7.420;2022-12-18T11:06:32;80.78;;;28.23;;
64938;SDS011;51453;47.738;7.420;2022-12-18T11:09:05;85.30;;;30.88;;
64938;SDS011;51453;47.738;7.420;2022-12-18T11:11:49;85.93;;;30.50;;
64938;SDS011;51453;47.738;7.420;2022-12-18T11:14:18;92.40;;;29.80;;
64938;SDS011;51453;47.738;7.420;2022-12-18T11:16:52;87.97;;;29.67;;
64938;SDS011;51453;47.738;7.420;2022-12-18T11:19:38;93.75;;;32.10;;
64938;SDS011;51453;47.738;7.420;2022-12-18T11:22:23;93.93;;;31.75;;
64938;SDS011;51453;47.738;7.420;2022-12-18T11:25:00;102.68;;;31.92;;
64938;SDS011;51453;47.738;7.420;2022-12-18T11:27:47;92.82;;;31.80;;
64938;SDS011;51453;47.738;7.420;2022-12-18T11:30:35;89.30;;;31.80;;
64938;SDS011;51453;47.738;7.420;2022-12-18T11:33:05;82.75;;;30.73;;
64938;SDS011;51453;47.738;7.420;2022-12-18T11:38:28;86.72;;;30.52;;
64938;SDS011;51453;47.738;7.420;2022-12-18T11:41:02;85.72;;;31.50;;
64938;SDS011;51453;47.738;7.420;2022-12-18T11:43:41;92.35;;;32.00;;
64938;SDS011;51453;47.738;7.420;2022-12-18T11:46:16;92.35;;;31.90;;
64938;SDS011;51453;47.738;7.420;2022-12-18T11:49:07;88.90;;;31.50;;
64938;SDS011;51453;47.738;7.420;2022-12-18T11:52:22;88.60;;;31.75;;
64938;SDS011;51453;47.738;7.420;2022-12-18T11:54:45;91.68;;;31.67;;
64938;SDS011;51453;47.738;7.420;2022-12-18T11:57:15;93.22;;;31.92;;
64938;SDS011;51453;47.738;7.420;2022-12-18T12:00:08;85.63;;;30.88;;
64938;SDS011;51453;47.738;7.420;2022-12-18T12:30:10;74.10;;;28.63;;
64938;SDS011;51453;47.738;7.420;2022-12-18T12:35:52;74.57;;;28.88;;
64938;SDS011;51453;47.738;7.420;2022-12-18T12:38:26;70.70;;;28.23;;
64938;SDS011;51453;47.738;7.420;2022-12-18T12:40:58;68.32;;;27.23;;
64938;SDS011;51453;47.738;7.420;2022-12-18T12:46:15;69.10;;;27.85;;
64938;SDS011;51453;47.738;7.420;2022-12-18T12:51:23;71.87;;;29.07;;
64938;SDS011;51453;47.738;7.420;2022-12-18T12:54:08;68.35;;;27.15;;
64938;SDS011;51453;47.738;7.420;2022-12-18T13:02:09;73.38;;;28.65;;
64938;SDS011;51453;47.738;7.420;2022-12-18T13:04:55;77.20;;;29.92;;
64938;SDS011;51453;47.738;7.420;2022-12-18T13:07:39;73.13;;;28.45;;
64938;SDS011;51453;47.738;7.420;2022-12-18T13:20:37;68.82;;;26.15;;
64938;SDS011;51453;47.738;7.420;2022-12-18T13:26:28;76.68;;;29.45;;
64938;SDS011;51453;47.738;7.420;2022-12-18T13:36:40;69.05;;;27.55;;
64938;SDS011;51453;47.738;7.420;2022-12-18T13:41:47;62.60;;;25.30;;
64938;SDS011;51453;47.738;7.420;2022-12-18T13:46:56;55.35;;;23.90;;
64938;SDS011;51453;47.738;7.420;2022-12-18T13:49:23;54.40;;;23.48;;
64938;SDS011;51453;47.738;7.420;2022-12-18T13:51:55;62.50;;;25.10;;
64938;SDS011;51453;47.738;7.420;2022-12-18T13:56:52;50.92;;;22.85;;
64938;SDS011;51453;47.738;7.420;2022-12-18T14:04:34;54.08;;;22.40;;
64938;SDS011;51453;47.738;7.420;2022-12-18T14:09:35;53.75;;;22.65;;
64938;SDS011;51453;47.738;7.420;2022-12-18T14:12:05;49.55;;;21.50;;
64938;SDS011;51453;47.738;7.420;2022-12-18T14:14:50;45.38;;;20.80;;
64938;SDS011;51453;47.738;7.420;2022-12-18T14:17:18;47.50;;;20.60;;
64938;SDS011;51453;47.738;7.420;2022-12-18T14:19:44;46.30;;;20.30;;
64938;SDS011;51453;47.738;7.420;2022-12-18T14:22:19;41.25;;;18.77;;
64938;SDS011;51453;47.738;7.420;2022-12-18T14:25:05;40.13;;;18.58;;
64938;SDS011;51453;47.738;7.420;2022-12-18T14:27:49;40.05;;;18.75;;
64938;SDS011;51453;47.738;7.420;2022-12-18T14:30:26;43.63;;;19.35;;
64938;SDS011;51453;47.738;7.420;2022-12-18T14:33:01;42.65;;;18.98;;
64938;SDS011;51453;47.738;7.420;2022-12-18T14:35:27;45.25;;;19.98;;
64938;SDS011;51453;47.738;7.420;2022-12-18T14:37:53;44.63;;;19.98;;
64938;SDS011;51453;47.738;7.420;2022-12-18T14:40:19;45.25;;;20.55;;
64938;SDS011;51453;47.738;7.420;2022-12-18T14:42:44;43.92;;;19.75;;
64938;SDS011;51453;47.738;7.420;2022-12-18T14:47:58;37.95;;;18.23;;
64938;SDS011;51453;47.738;7.420;2022-12-18T14:50:24;38.70;;;18.42;;
64938;SDS011;51453;47.738;7.420;2022-12-18T14:52:51;39.00;;;19.17;;
64938;SDS011;51453;47.738;7.420;2022-12-18T14:55:17;41.45;;;19.50;;
64938;SDS011;51453;47.738;7.420;2022-12-18T14:57:45;42.22;;;19.67;;
64938;SDS011;51453;47.738;7.420;2022-12-18T15:00:15;44.13;;;20.35;;
64938;SDS011;51453;47.738;7.420;2022-12-18T15:02:43;51.85;;;22.63;;
64938;SDS011;51453;47.738;7.420;2022-12-18T15:05:24;50.95;;;23.20;;
64938;SDS011;51453;47.738;7.420;2022-12-18T15:07:53;51.70;;;23.42;;
64938;SDS011;51453;47.738;7.420;2022-12-18T15:10:28;60.40;;;25.85;;
64938;SDS011;51453;47.738;7.420;2022-12-18T15:20:46;57.35;;;24.50;;
64938;SDS011;51453;47.738;7.420;2022-12-18T15:25:46;56.50;;;23.60;;
64938;SDS011;51453;47.738;7.420;2022-12-18T15:28:22;59.92;;;24.05;;
64938;SDS011;51453;47.738;7.420;2022-12-18T15:33:36;57.92;;;24.85;;
64938;SDS011;51453;47.738;7.420;2022-12-18T15:36:04;59.70;;;25.40;;
64938;SDS011;51453;47.738;7.420;2022-12-18T15:38:34;57.38;;;23.70;;
64938;SDS011;51453;47.738;7.420;2022-12-18T15:41:00;54.60;;;23.75;;
64938;SDS011;51453;47.738;7.420;2022-12-18T15:43:29;57.42;;;25.15;;
64938;SDS011;51453;47.738;7.420;2022-12-18T15:46:05;53.78;;;24.65;;
64938;SDS011;51453;47.738;7.420;2022-12-18T15:48:34;59.80;;;24.70;;
64938;SDS011;51453;47.738;7.420;2022-12-18T15:51:04;62.35;;;26.52;;
64938;SDS011;51453;47.738;7.420;2022-12-18T15:53:35;54.28;;;24.27;;
64938;SDS011;51453;47.738;7.420;2022-12-18T15:56:01;61.50;;;25.20;;
64938;SDS011;51453;47.738;7.420;2022-12-18T15:58:45;59.42;;;24.55;;
64938;SDS011;51453;47.738;7.420;2022-12-18T16:01:11;63.00;;;26.05;;
64938;SDS011;51453;47.738;7.420;2022-12-18T16:03:50;67.50;;;26.27;;
64938;SDS011;51453;47.738;7.420;2022-12-18T16:06:16;60.88;;;25.00;;
64938;SDS011;51453;47.738;7.420;2022-12-18T16:08:42;65.18;;;26.50;;
64938;SDS011;51453;47.738;7.420;2022-12-18T16:14:41;67.73;;;27.00;;
64938;SDS011;51453;47.738;7.420;2022-12-18T16:17:00;60.70;;;25.63;;
64938;SDS011;51453;47.738;7.420;2022-12-18T16:19:28;61.83;;;26.15;;
64938;SDS011;51453;47.738;7.420;2022-12-18T16:21:55;61.53;;;28.33;;
64938;SDS011;51453;47.738;7.420;2022-12-18T16:24:26;57.35;;;25.20;;
64938;SDS011;51453;47.738;7.420;2022-12-18T16:26:55;58.13;;;24.98;;
64938;SDS011;51453;47.738;7.420;2022-12-18T16:29:24;59.10;;;25.30;;
64938;SDS011;51453;47.738;7.420;2022-12-18T16:31:55;115.68;;;53.10;;
64938;SDS011;51453;47.738;7.420;2022-12-18T16:34:23;60.35;;;25.90;;
64938;SDS011;51453;47.738;7.420;2022-12-18T16:37:00;60.00;;;25.00;;
64938;SDS011;51453;47.738;7.420;2022-12-18T16:39:27;59.80;;;25.10;;
64938;SDS011;51453;47.738;7.420;2022-12-18T16:41:53;54.83;;;24.75;;
64938;SDS011;51453;47.738;7.420;2022-12-18T16:44:18;57.28;;;25.02;;
64938;SDS011;51453;47.738;7.420;2022-12-18T16:46:44;58.65;;;26.15;;
64938;SDS011;51453;47.738;7.420;2022-12-18T16:49:11;61.58;;;27.90;;
64938;SDS011;51453;47.738;7.420;2022-12-18T16:51:38;63.35;;;26.42;;
64938;SDS011;51453;47.738;7.420;2022-12-18T16:54:03;60.72;;;27.00;;
64938;SDS011;51453;47.738;7.420;2022-12-18T16:56:29;66.18;;;28.52;;
64938;SDS011;51453;47.738;7.420;2022-12-18T16:58:56;61.42;;;26.95;;
64938;SDS011;51453;47.738;7.420;2022-12-18T17:01:24;63.50;;;28.80;;
64938;SDS011;51453;47.738;7.420;2022-12-18T17:03:55;80.68;;;31.98;;
64938;SDS011;51453;47.738;7.420;2022-12-18T17:06:25;72.93;;;30.83;;
64938;SDS011;51453;47.738;7.420;2022-12-18T17:08:59;69.20;;;30.85;;